createdAt,value
2018-05-15T00:00:34.872Z,87.10
2018-05-15T00:03:02.344Z,87.00
2018-05-15T00:05:29.814Z,86.90
2018-05-15T00:07:57.373Z,86.90
2018-05-15T00:10:24.835Z,86.70
2018-05-15T00:12:52.301Z,86.80
2018-05-15T00:15:19.764Z,87.00
2018-05-15T00:17:47.326Z,87.00
2018-05-15T00:20:14.897Z,87.00
2018-05-15T00:22:42.342Z,87.10
2018-05-15T00:25:09.811Z,87.20
2018-05-15T00:27:37.258Z,87.20
2018-05-15T00:30:04.750Z,87.00
2018-05-15T00:32:32.197Z,87.20
2018-05-15T00:34:59.668Z,87.20
2018-05-15T00:37:27.129Z,87.30
2018-05-15T00:39:54.701Z,88.20
2018-05-15T00:42:22.266Z,87.40
2018-05-15T00:44:49.720Z,87.40
2018-05-15T00:47:17.168Z,87.60
2018-05-15T00:49:44.753Z,87.40
2018-05-15T00:52:12.201Z,87.70
2018-05-15T00:54:39.690Z,87.90
2018-05-15T00:57:07.250Z,87.90
2018-05-15T00:59:34.818Z,88.40
2018-05-15T01:02:02.333Z,88.20
2018-05-15T01:04:30.543Z,87.80
2018-05-15T01:06:58.005Z,87.70
2018-05-15T01:09:25.479Z,87.40
2018-05-15T01:11:52.937Z,87.30
2018-05-15T01:14:20.383Z,87.20
2018-05-15T01:16:47.849Z,87.30
2018-05-15T01:19:15.322Z,87.10
2018-05-15T01:21:42.802Z,87.20
2018-05-15T01:24:10.253Z,87.10
2018-05-15T01:26:37.829Z,87.10
2018-05-15T01:29:05.293Z,87.30
2018-05-15T01:31:32.742Z,87.30
2018-05-15T01:34:00.281Z,87.40
2018-05-15T01:36:28.502Z,87.70
2018-05-15T01:38:55.970Z,87.60
2018-05-15T01:41:23.436Z,87.50
2018-05-15T01:43:50.896Z,87.30
2018-05-15T01:46:18.357Z,87.40
2018-05-15T01:48:45.806Z,87.40
2018-05-15T01:51:13.275Z,87.20
2018-05-15T01:53:40.729Z,87.10
2018-05-15T01:56:08.225Z,87.10
2018-05-15T01:58:35.668Z,87.00
2018-05-15T02:01:03.238Z,87.30
2018-05-15T02:03:30.705Z,87.30
2018-05-15T02:05:58.157Z,87.30
2018-05-15T02:08:25.627Z,87.40
2018-05-15T02:10:53.109Z,87.40
2018-05-15T02:13:20.659Z,87.50
2018-05-15T02:15:48.104Z,87.50
2018-05-15T02:18:15.577Z,87.10
2018-05-15T02:20:43.148Z,87.30
2018-05-15T02:23:10.624Z,87.30
2018-05-15T02:25:38.055Z,87.30
2018-05-15T02:28:05.542Z,87.70
2018-05-15T02:30:33.086Z,87.60
2018-05-15T02:33:00.474Z,87.80
2018-05-15T02:35:27.928Z,87.50
2018-05-15T02:37:55.401Z,87.60
2018-05-15T02:40:22.868Z,87.60
2018-05-15T02:42:50.308Z,86.70
2018-05-15T02:45:17.780Z,87.10
2018-05-15T02:47:45.358Z,87.30
2018-05-15T02:50:12.817Z,87.30
2018-05-15T02:52:40.275Z,87.30
2018-05-15T02:55:07.745Z,86.80
2018-05-15T02:57:35.213Z,87.00
2018-05-15T03:00:02.649Z,86.80
2018-05-15T03:02:30.167Z,86.80
2018-05-15T03:04:58.405Z,87.30
2018-05-15T03:07:25.867Z,86.90
2018-05-15T03:09:53.324Z,86.80
2018-05-15T03:12:20.798Z,87.20
2018-05-15T03:14:48.261Z,86.40
2018-05-15T03:17:15.705Z,86.40
2018-05-15T03:19:43.172Z,86.50
2018-05-15T03:22:10.629Z,86.30
2018-05-15T03:24:38.416Z,86.10
2018-05-15T03:27:05.982Z,86.10
2018-05-15T03:29:33.449Z,86.20
2018-05-15T03:32:01.014Z,86.10
2018-05-15T03:34:28.470Z,86.10
2018-05-15T03:36:56.041Z,85.90
2018-05-15T03:39:24.526Z,86.10
2018-05-15T03:41:52.093Z,85.90
2018-05-15T03:44:19.757Z,86.00
2018-05-15T03:46:47.232Z,85.90
2018-05-15T03:49:14.673Z,85.80
2018-05-15T03:51:42.148Z,85.80
2018-05-15T03:54:09.617Z,85.80
2018-05-15T03:56:37.182Z,85.90
2018-05-15T03:59:04.645Z,85.80
2018-05-15T04:01:44.073Z,85.90
2018-05-15T04:04:23.593Z,85.80
2018-05-15T04:07:04.048Z,85.70
2018-05-15T04:09:31.511Z,85.80
2018-05-15T04:11:58.975Z,85.90
2018-05-15T04:14:26.477Z,85.80
2018-05-15T04:16:53.924Z,85.70
2018-05-15T04:19:21.400Z,85.60
2018-05-15T04:21:48.970Z,85.50
2018-05-15T04:24:16.411Z,85.50
2018-05-15T04:26:43.877Z,85.60
2018-05-15T04:29:11.355Z,85.70
2018-05-15T04:31:38.836Z,85.50
2018-05-15T04:34:07.790Z,85.70
2018-05-15T04:36:35.233Z,85.60
2018-05-15T04:39:03.470Z,85.30
2018-05-15T04:41:30.933Z,85.30
2018-05-15T04:43:58.456Z,85.30
2018-05-15T04:46:25.841Z,85.20
2018-05-15T04:48:53.306Z,85.30
2018-05-15T04:51:20.757Z,85.30
2018-05-15T04:53:48.227Z,85.30
2018-05-15T04:56:15.697Z,85.30
2018-05-15T04:58:43.154Z,85.10
2018-05-15T05:01:10.606Z,85.40
2018-05-15T05:03:38.073Z,85.50
2018-05-15T05:06:05.540Z,85.10
2018-05-15T05:08:33.012Z,85.20
2018-05-15T05:11:00.481Z,85.10
2018-05-15T05:13:27.928Z,85.00
2018-05-15T05:15:55.396Z,85.10
2018-05-15T05:18:22.857Z,84.90
2018-05-15T05:20:50.346Z,84.80
2018-05-15T05:23:17.788Z,84.60
2018-05-15T05:25:45.239Z,84.50
2018-05-15T05:28:12.693Z,84.50
2018-05-15T05:30:40.142Z,84.50
2018-05-15T05:33:07.603Z,84.60
2018-05-15T05:35:35.058Z,84.50
2018-05-15T05:38:03.299Z,84.50
2018-05-15T05:40:30.753Z,84.40
2018-05-15T05:42:58.312Z,85.20
2018-05-15T05:45:25.774Z,84.40
2018-05-15T05:47:53.266Z,84.20
2018-05-15T05:50:20.714Z,84.40
2018-05-15T05:52:48.274Z,84.10
2018-05-15T05:55:15.724Z,84.10
2018-05-15T05:57:43.198Z,84.20
2018-05-15T06:00:10.762Z,84.30
2018-05-15T06:02:38.209Z,84.40
2018-05-15T06:05:05.688Z,84.60
2018-05-15T06:07:33.130Z,84.60
2018-05-15T06:10:00.617Z,84.70
2018-05-15T06:12:28.073Z,84.20
2018-05-15T06:14:55.580Z,84.20
2018-05-15T06:17:23.005Z,84.10
2018-05-15T06:19:50.574Z,84.20
2018-05-15T06:22:18.133Z,83.90
2018-05-15T06:24:45.704Z,83.80
2018-05-15T06:27:13.159Z,84.10
2018-05-15T06:29:40.602Z,83.80
2018-05-15T06:32:08.097Z,83.40
2018-05-15T06:34:35.553Z,83.20
2018-05-15T06:37:03.004Z,83.40
2018-05-15T06:39:30.486Z,83.30
2018-05-15T06:41:57.957Z,83.30
2018-05-15T06:44:25.433Z,83.30
2018-05-15T06:46:52.901Z,83.30
2018-05-15T06:49:20.365Z,83.40
2018-05-15T06:51:47.892Z,83.20
2018-05-15T06:54:15.361Z,83.20
2018-05-15T06:56:42.926Z,83.10
2018-05-15T06:59:10.371Z,83.00
2018-05-15T07:01:37.829Z,83.00
2018-05-15T07:04:05.328Z,83.10
2018-05-15T07:06:32.784Z,83.20
2018-05-15T07:09:00.259Z,83.30
2018-05-15T07:11:27.815Z,83.30
2018-05-15T07:13:55.301Z,83.40
2018-05-15T07:16:22.728Z,83.30
2018-05-15T07:18:50.218Z,83.30
2018-05-15T07:21:17.677Z,83.30
2018-05-15T07:23:45.137Z,83.20
2018-05-15T07:26:12.693Z,83.20
2018-05-15T07:28:40.141Z,83.20
2018-05-15T07:31:07.609Z,83.10
2018-05-15T07:33:35.061Z,83.00
2018-05-15T07:36:02.545Z,83.00
2018-05-15T07:38:29.993Z,83.20
2018-05-15T07:40:57.477Z,83.40
2018-05-15T07:43:24.931Z,83.60
2018-05-15T07:45:52.389Z,83.40
2018-05-15T07:48:19.952Z,83.50
2018-05-15T07:50:47.423Z,83.30
2018-05-15T07:53:14.864Z,83.50
2018-05-15T07:55:42.321Z,83.60
2018-05-15T07:58:09.817Z,83.60
2018-05-15T08:00:37.277Z,83.50
2018-05-15T08:03:04.835Z,83.40
2018-05-15T08:05:32.319Z,83.40
2018-05-15T08:07:59.769Z,82.70
2018-05-15T08:10:27.233Z,82.50
2018-05-15T08:12:54.686Z,82.40
2018-05-15T08:15:22.184Z,82.30
2018-05-15T08:17:49.644Z,81.80
2018-05-15T08:20:17.184Z,81.20
2018-05-15T08:22:44.649Z,81.10
2018-05-15T08:25:12.110Z,81.20
2018-05-15T08:27:39.577Z,81.10
2018-05-15T08:30:07.041Z,81.00
2018-05-15T08:32:34.501Z,80.20
2018-05-15T08:35:01.978Z,79.40
2018-05-15T08:37:29.444Z,80.00
2018-05-15T08:39:56.895Z,79.60
2018-05-15T08:42:24.344Z,79.40
2018-05-15T08:44:51.847Z,77.90
2018-05-15T08:47:19.309Z,77.70
2018-05-15T08:49:46.766Z,78.20
2018-05-15T08:52:14.315Z,77.70
2018-05-15T08:54:41.777Z,77.50
2018-05-15T08:57:09.239Z,77.70
2018-05-15T08:59:36.690Z,76.60
2018-05-15T09:02:04.165Z,76.80
2018-05-15T09:04:31.745Z,76.30
2018-05-15T09:06:59.182Z,73.20
2018-05-15T09:09:26.650Z,73.60
2018-05-15T09:11:54.121Z,73.60
2018-05-15T09:14:21.586Z,73.90
2018-05-15T09:16:49.053Z,73.60
2018-05-15T09:19:16.559Z,73.70
2018-05-15T09:21:43.975Z,73.10
2018-05-15T09:24:11.429Z,73.80
2018-05-15T09:26:38.901Z,74.70
2018-05-15T09:29:06.382Z,73.80
2018-05-15T09:31:33.825Z,73.40
2018-05-15T09:34:01.285Z,74.90
2018-05-15T09:36:28.825Z,75.30
2018-05-15T09:38:56.211Z,73.90
2018-05-15T09:41:23.680Z,74.10
2018-05-15T09:43:53.944Z,74.60
2018-05-15T09:46:21.418Z,75.00
2018-05-15T09:48:49.649Z,74.70
2018-05-15T09:51:17.121Z,74.70
2018-05-15T09:53:44.574Z,73.80
2018-05-15T09:56:12.026Z,73.00
2018-05-15T09:58:39.489Z,71.30
2018-05-15T10:01:06.973Z,72.50
2018-05-15T10:03:34.436Z,72.00
2018-05-15T10:06:02.006Z,70.80
2018-05-15T10:08:29.445Z,71.00
2018-05-15T10:10:56.905Z,71.40
2018-05-15T10:13:24.377Z,66.60
2018-05-15T10:15:51.845Z,68.90
2018-05-15T10:18:19.289Z,69.40
2018-05-15T10:20:46.765Z,70.70
2018-05-15T10:23:14.221Z,67.90
2018-05-15T10:25:41.677Z,68.20
2018-05-15T10:28:09.150Z,67.00
2018-05-15T10:30:36.624Z,67.00
2018-05-15T10:33:04.066Z,68.10
2018-05-15T10:35:31.527Z,65.50
2018-05-15T10:37:59.042Z,64.40
2018-05-15T10:40:26.510Z,64.70
2018-05-15T10:42:53.969Z,63.70
2018-05-15T10:45:21.510Z,65.00
2018-05-15T10:47:48.957Z,66.30
2018-05-15T10:50:16.428Z,66.50
2018-05-15T10:52:43.867Z,62.30
2018-05-15T10:55:11.331Z,66.20
2018-05-15T10:57:38.794Z,62.70
2018-05-15T11:00:06.298Z,63.30
2018-05-15T11:02:33.755Z,64.10
2018-05-15T11:05:01.213Z,60.10
2018-05-15T11:07:28.651Z,61.70
2018-05-15T11:09:56.122Z,59.20
2018-05-15T11:12:23.581Z,60.80
2018-05-15T11:14:51.043Z,61.30
2018-05-15T11:17:18.526Z,58.50
2018-05-15T11:19:57.691Z,56.60
2018-05-15T11:22:37.018Z,52.50
2018-05-15T11:25:04.557Z,55.30
2018-05-15T11:27:32.024Z,55.90
2018-05-15T11:29:59.461Z,56.60
2018-05-15T11:32:26.929Z,59.50
2018-05-15T11:34:54.389Z,57.90
2018-05-15T11:37:21.853Z,57.10
2018-05-15T11:39:49.302Z,57.90
2018-05-15T11:42:16.781Z,57.20
2018-05-15T11:44:44.225Z,57.60
2018-05-15T11:47:11.677Z,58.50
2018-05-15T11:49:40.776Z,60.80
2018-05-15T11:52:08.009Z,60.70
2018-05-15T11:54:34.821Z,59.60
2018-05-15T11:57:02.296Z,59.60
2018-05-15T11:59:29.754Z,61.10
2018-05-15T12:01:57.219Z,61.60
2018-05-15T12:04:24.680Z,62.30
2018-05-15T12:06:52.142Z,62.10
2018-05-15T12:09:19.717Z,62.50
2018-05-15T12:11:47.177Z,63.20
2018-05-15T12:14:14.638Z,64.50
2018-05-15T12:16:42.081Z,65.60
2018-05-15T12:19:09.570Z,66.90
2018-05-15T12:21:37.018Z,67.90
2018-05-15T12:24:04.472Z,67.80
2018-05-15T12:26:31.957Z,67.60
2018-05-15T12:28:59.437Z,67.90
2018-05-15T12:31:26.893Z,67.00
2018-05-15T12:33:54.382Z,67.10
2018-05-15T12:36:21.828Z,67.70
2018-05-15T12:38:49.281Z,67.60
2018-05-15T12:41:16.746Z,66.70
2018-05-15T12:43:44.188Z,66.80
2018-05-15T12:46:11.638Z,66.80
2018-05-15T12:48:39.112Z,65.10
2018-05-15T12:51:06.546Z,63.90
2018-05-15T12:53:34.869Z,65.20
2018-05-15T12:56:02.334Z,65.20
2018-05-15T12:58:29.900Z,64.50
2018-05-15T13:00:57.330Z,65.50
2018-05-15T13:03:24.790Z,65.50
2018-05-15T13:05:52.296Z,65.70
2018-05-15T13:08:19.766Z,64.70
2018-05-15T13:10:47.243Z,65.40
2018-05-15T13:13:14.778Z,64.30
2018-05-15T13:15:42.220Z,64.30
2018-05-15T13:18:09.682Z,64.60
2018-05-15T13:20:37.122Z,62.50
2018-05-15T13:23:05.454Z,61.10
2018-05-15T13:25:32.912Z,61.00
2018-05-15T13:28:00.365Z,61.20
2018-05-15T13:30:27.837Z,60.30
2018-05-15T13:32:55.296Z,60.10
2018-05-15T13:35:22.808Z,59.90
2018-05-15T13:37:50.214Z,62.60
2018-05-15T13:40:17.650Z,62.70
2018-05-15T13:42:45.861Z,59.10
2018-05-15T13:45:13.337Z,59.10
2018-05-15T13:47:40.784Z,59.20
2018-05-15T13:50:08.223Z,56.60
2018-05-15T13:52:35.699Z,55.90
2018-05-15T13:55:03.160Z,55.40
2018-05-15T13:57:30.606Z,54.20
2018-05-15T13:59:58.824Z,52.40
2018-05-15T14:02:26.281Z,52.30
2018-05-15T14:04:53.761Z,52.20
2018-05-15T14:07:21.222Z,51.60
2018-05-15T14:09:48.698Z,51.50
2018-05-15T14:12:16.147Z,50.50
2018-05-15T14:14:43.605Z,48.50
2018-05-15T14:17:11.052Z,47.70
2018-05-15T14:19:38.520Z,46.30
2018-05-15T14:22:05.995Z,47.20
2018-05-15T14:24:33.468Z,47.90
2018-05-15T14:27:00.902Z,48.90
2018-05-15T14:29:28.345Z,48.00
2018-05-15T14:31:56.674Z,49.00
2018-05-15T14:34:24.121Z,49.00
2018-05-15T14:36:51.575Z,50.20
2018-05-15T14:39:19.037Z,48.50
2018-05-15T14:41:58.377Z,48.90
2018-05-15T14:44:25.858Z,52.90
2018-05-15T14:46:53.336Z,47.30
2018-05-15T14:49:20.890Z,46.20
2018-05-15T14:51:48.336Z,45.20
2018-05-15T14:54:15.812Z,47.80
2018-05-15T14:56:43.282Z,46.80
2018-05-15T14:59:10.753Z,43.10
2018-05-15T15:01:38.196Z,45.30
2018-05-15T15:04:05.657Z,43.00
2018-05-15T15:06:33.129Z,41.00
2018-05-15T15:09:00.602Z,46.50
2018-05-15T15:11:28.155Z,46.90
2018-05-15T15:13:55.600Z,47.80
2018-05-15T15:16:23.042Z,45.30
2018-05-15T15:18:51.257Z,45.70
2018-05-15T15:21:18.703Z,45.60
2018-05-15T15:23:46.208Z,45.10
2018-05-15T15:26:13.606Z,44.00
2018-05-15T15:28:41.936Z,46.20
2018-05-15T15:31:09.375Z,46.00
2018-05-15T15:33:36.864Z,46.00
2018-05-15T15:36:04.325Z,43.50
2018-05-15T15:38:31.889Z,44.80
2018-05-15T15:40:59.337Z,46.20
2018-05-15T15:43:26.800Z,46.20
2018-05-15T15:45:54.258Z,44.10
2018-05-15T15:48:21.705Z,45.50
2018-05-15T15:50:49.174Z,46.00
2018-05-15T15:53:16.611Z,43.80
2018-05-15T15:55:44.943Z,45.30
2018-05-15T15:58:12.302Z,44.90
2018-05-15T16:00:39.766Z,47.60
2018-05-15T16:03:07.246Z,44.70
2018-05-15T16:05:34.713Z,46.20
2018-05-15T16:08:02.179Z,47.00
2018-05-15T16:10:29.726Z,46.70
2018-05-15T16:12:57.293Z,46.30
2018-05-15T16:15:24.766Z,47.00
2018-05-15T16:17:52.237Z,47.80
2018-05-15T16:20:19.786Z,49.30
2018-05-15T16:22:47.339Z,49.00
2018-05-15T16:25:14.715Z,49.60
2018-05-15T16:27:42.281Z,49.70
2018-05-15T16:30:09.728Z,50.30
2018-05-15T16:32:37.205Z,50.30
2018-05-15T16:35:04.650Z,50.50
2018-05-15T16:37:32.140Z,51.00
2018-05-15T16:39:59.548Z,51.10
2018-05-15T16:42:27.767Z,51.50
2018-05-15T16:44:55.234Z,51.40
2018-05-15T16:47:22.709Z,51.30
2018-05-15T16:49:50.142Z,51.60
2018-05-15T16:52:17.602Z,52.50
2018-05-15T16:54:45.085Z,51.80
2018-05-15T16:57:12.653Z,52.70
2018-05-15T16:59:40.121Z,52.50
2018-05-15T17:02:07.611Z,52.30
2018-05-15T17:04:35.142Z,53.10
2018-05-15T17:07:02.597Z,52.70
2018-05-15T17:09:30.063Z,52.50
2018-05-15T17:11:57.550Z,53.00
2018-05-15T17:14:25.034Z,53.50
2018-05-15T17:16:54.027Z,53.90
2018-05-15T17:19:21.431Z,53.90
2018-05-15T17:21:48.928Z,54.20
2018-05-15T17:24:16.398Z,53.90
2018-05-15T17:26:43.849Z,54.20
2018-05-15T17:29:11.314Z,54.30
2018-05-15T17:31:38.757Z,54.50
2018-05-15T17:34:06.222Z,54.60
2018-05-15T17:36:33.672Z,55.00
2018-05-15T17:39:01.134Z,54.30
2018-05-15T17:41:29.346Z,54.60
2018-05-15T17:43:57.066Z,54.50
2018-05-15T17:46:25.291Z,54.40
2018-05-15T17:48:52.767Z,54.40
2018-05-15T17:51:20.235Z,54.00
2018-05-15T17:53:47.717Z,54.80
2018-05-15T17:56:15.181Z,54.90
2018-05-15T17:58:43.426Z,54.20
2018-05-15T18:01:10.881Z,54.50
2018-05-15T18:03:38.334Z,54.60
2018-05-15T18:06:05.792Z,54.10
2018-05-15T18:08:33.311Z,54.70
2018-05-15T18:11:00.751Z,54.70
2018-05-15T18:13:28.186Z,55.30
2018-05-15T18:15:55.649Z,55.70
2018-05-15T18:18:23.143Z,55.30
2018-05-15T18:20:50.701Z,55.80
2018-05-15T18:23:18.269Z,56.20
2018-05-15T18:25:45.733Z,56.00
2018-05-15T18:28:13.193Z,55.70
2018-05-15T18:30:40.674Z,56.50
2018-05-15T18:33:08.177Z,55.40
2018-05-15T18:35:35.561Z,55.50
2018-05-15T18:38:03.045Z,55.50
2018-05-15T18:40:30.494Z,56.10
2018-05-15T18:42:57.969Z,56.00
2018-05-15T18:45:25.478Z,56.30
2018-05-15T18:47:52.917Z,56.70
2018-05-15T18:50:20.392Z,56.90
2018-05-15T18:52:47.952Z,56.80
2018-05-15T18:55:15.386Z,56.80
2018-05-15T18:57:42.858Z,57.40
2018-05-15T19:00:10.401Z,57.20
2018-05-15T19:02:37.763Z,57.40
2018-05-15T19:05:05.235Z,57.40
2018-05-15T19:07:32.685Z,57.30
2018-05-15T19:10:00.152Z,57.00
2018-05-15T19:12:27.589Z,57.30
2018-05-15T19:14:55.826Z,57.70
2018-05-15T19:17:23.290Z,57.60
2018-05-15T19:19:50.733Z,57.80
2018-05-15T19:22:18.206Z,58.00
2018-05-15T19:24:45.697Z,57.90
2018-05-15T19:27:14.722Z,58.60
2018-05-15T19:29:42.152Z,58.50
2018-05-15T19:32:15.440Z,58.40
2018-05-15T19:34:48.679Z,58.60
2018-05-15T19:37:16.920Z,59.30
2018-05-15T19:39:44.466Z,59.20
2018-05-15T19:42:11.826Z,60.10
2018-05-15T19:44:39.267Z,59.50
2018-05-15T19:47:06.754Z,59.50
2018-05-15T19:49:34.212Z,59.40
2018-05-15T19:52:01.686Z,59.20
2018-05-15T19:54:29.226Z,59.40
2018-05-15T19:56:56.609Z,59.30
2018-05-15T19:59:24.078Z,59.50
2018-05-15T20:01:51.549Z,59.40
2018-05-15T20:04:19.108Z,59.40
2018-05-15T20:06:46.583Z,59.80
2018-05-15T20:09:14.062Z,59.90
2018-05-15T20:11:41.545Z,60.70
2018-05-15T20:14:09.766Z,60.90
2018-05-15T20:16:37.240Z,60.80
2018-05-15T20:19:04.806Z,60.90
2018-05-15T20:21:32.250Z,61.20
2018-05-15T20:23:59.724Z,60.90
2018-05-15T20:26:27.194Z,60.40
2018-05-15T20:28:54.666Z,60.80
2018-05-15T20:31:22.138Z,61.00
2018-05-15T20:33:49.583Z,61.30
2018-05-15T20:36:17.051Z,61.10
2018-05-15T20:38:44.610Z,61.30
2018-05-15T20:41:12.106Z,61.70
2018-05-15T20:43:40.319Z,62.10
2018-05-15T20:46:07.778Z,62.10
2018-05-15T20:48:35.259Z,62.20
2018-05-15T20:51:02.702Z,62.40
2018-05-15T20:53:30.183Z,62.50
2018-05-15T20:55:57.644Z,62.60
2018-05-15T20:58:25.161Z,63.30
2018-05-15T21:00:52.626Z,63.60
2018-05-15T21:03:20.165Z,64.50
2018-05-15T21:05:47.614Z,64.30
2018-05-15T21:08:15.081Z,64.80
2018-05-15T21:10:42.539Z,65.00
2018-05-15T21:13:10.023Z,65.50
2018-05-15T21:15:37.466Z,66.10
2018-05-15T21:18:04.938Z,66.30
2018-05-15T21:20:32.406Z,66.20
2018-05-15T21:22:59.854Z,66.70
2018-05-15T21:25:27.317Z,67.10
2018-05-15T21:27:54.857Z,66.90
2018-05-15T21:30:22.338Z,67.00
2018-05-15T21:32:49.775Z,67.40
2018-05-15T21:35:18.010Z,68.10
2018-05-15T21:37:45.459Z,68.00
2018-05-15T21:40:12.923Z,68.40
2018-05-15T21:42:40.369Z,68.90
2018-05-15T21:45:07.835Z,68.80
2018-05-15T21:47:35.942Z,68.30
2018-05-15T21:50:03.426Z,68.10
2018-05-15T21:52:30.854Z,68.70
2018-05-15T21:54:58.425Z,68.90
2018-05-15T21:57:25.862Z,69.90
2018-05-15T21:59:53.335Z,69.60
2018-05-15T22:02:20.816Z,69.00
2018-05-15T22:04:48.279Z,69.90
2018-05-15T22:07:15.727Z,70.50
2018-05-15T22:09:43.189Z,70.20
2018-05-15T22:12:22.374Z,70.30
2018-05-15T22:15:02.647Z,70.60
2018-05-15T22:17:42.085Z,70.50
2018-05-15T22:20:21.614Z,70.70
2018-05-15T22:22:49.438Z,70.20
2018-05-15T22:25:16.885Z,70.10
2018-05-15T22:27:44.357Z,70.20
2018-05-15T22:30:11.806Z,70.30
2018-05-15T22:32:39.270Z,70.70
2018-05-15T22:35:06.766Z,71.00
2018-05-15T22:37:34.231Z,71.00
2018-05-15T22:40:01.794Z,71.10
2018-05-15T22:42:29.346Z,71.20
2018-05-15T22:44:56.787Z,71.60
2018-05-15T22:47:24.265Z,71.30
2018-05-15T22:49:51.696Z,71.70
2018-05-15T22:52:19.171Z,71.90
2018-05-15T22:54:46.671Z,72.20
2018-05-15T22:57:14.150Z,72.30
2018-05-15T22:59:41.613Z,71.70
2018-05-15T23:02:09.061Z,71.80
2018-05-15T23:04:36.625Z,72.10
2018-05-15T23:07:04.087Z,71.80
2018-05-15T23:09:31.551Z,72.30
2018-05-15T23:11:59.013Z,72.20
2018-05-15T23:14:26.577Z,72.90
2018-05-15T23:16:54.034Z,72.40
2018-05-15T23:19:21.515Z,72.50
2018-05-15T23:21:48.961Z,72.70
2018-05-15T23:24:16.425Z,72.70
2018-05-15T23:26:43.892Z,72.80
2018-05-15T23:29:11.353Z,72.20
2018-05-15T23:31:38.814Z,72.70
2018-05-15T23:34:06.382Z,72.40
2018-05-15T23:36:33.847Z,73.10
2018-05-15T23:39:01.305Z,73.40
2018-05-15T23:41:28.781Z,73.50
2018-05-15T23:43:56.258Z,73.10
2018-05-15T23:46:23.798Z,73.20
2018-05-15T23:48:51.262Z,73.20
2018-05-15T23:51:18.748Z,73.30
2018-05-15T23:53:46.189Z,72.90
2018-05-15T23:56:13.646Z,72.80
2018-05-15T23:58:41.122Z,73.30
